Time;durP1;ratioP1;P1;durP2;ratioP2;P2;SDS_P1;SDS_P2;PMS_P1;PMS_P2;Temp;Humidity;BMP_temperature;BMP_pressure;BME280_temperature;BME280_humidity;BME280_pressure;Samples;Min_cycle;Max_cycle;Signal;HPM_P1;HPM_P2
2021/06/20 00:23:32;;;;;;;;;;;;;;;;;;;;;
2021/06/20 03:34:00;;;;;;;10.03;4.47;;;19.70;99.90;;;-143.32;100.00;52116.09;5849444;24;20562;-92
2021/06/20 04:03:21;;;;;;;8.23;5.30;;;19.90;99.90;;;-143.32;100.00;52596.66;5915785;23;20505;-92
2021/06/20 04:06:35;;;;;;;;;;;;;;;;;;;;;
2021/06/20 04:29:36;;;;;;;12.37;6.93;;;19.80;99.90;;;-143.32;100.00;52875.31;5798742;24;20399;-92
2021/06/20 04:58:01;;;;;;;14.63;5.90;;;20.20;99.90;;;-143.32;100.00;53147.94;5934838;24;20417;-92
2021/06/20 05:15:37;;;;;;;11.97;5.13;;;20.30;99.90;;;-143.32;100.00;53254.97;5825941;24;20515;-92
2021/06/20 05:18:11;;;;;;;11.13;4.50;;;20.30;99.90;;;-143.32;100.00;53267.09;5844791;24;20451;-91
2021/06/20 05:27:56;;;;;;;8.57;3.60;;;20.60;99.90;;;-143.32;100.00;53329.72;5866191;24;20798;-91
2021/06/20 05:30:45;;;;;;;5.60;3.57;;;20.70;99.90;;;-143.32;100.00;53366.06;5912202;23;20424;-91
2021/06/20 07:20:33;;;;;;;9.37;4.20;;;23.40;1.00;;;-143.32;87.81;54159.91;5912416;24;20453;-92
2021/06/20 07:27:43;;;;;;;6.63;3.13;;;23.80;1.00;;;-143.32;84.57;54180.09;6000210;24;20900;-92
2021/06/20 09:55:39;;;;;;;;;;;;;;;;;;;;;
2021/06/20 10:24:28;;;;;;;2.63;1.80;;;25.30;1.00;;;-143.32;61.18;54810.47;5983371;24;20401;-92
2021/06/20 10:49:43;;;;;;;16.00;11.10;;;25.70;1.00;;;-143.32;59.50;54794.28;6047668;23;20431;-90
2021/06/20 10:53:37;;;;;;;3.47;1.77;;;25.70;1.00;;;-143.32;58.61;54802.38;6072853;23;20423;-91
2021/06/20 11:24:40;;;;;;;4.73;1.60;;;26.50;1.00;;;-143.32;52.49;54899.38;5791736;24;20489;-88
2021/06/20 11:27:12;;;;;;;2.07;1.33;;;26.40;1.00;;;-143.32;53.80;54903.41;5791688;24;20464;-90
2021/06/20 11:29:43;;;;;;;2.20;1.43;;;26.40;1.00;;;-143.32;53.30;54899.38;5978673;23;20435;-88
2021/06/20 11:32:20;;;;;;;3.20;1.20;;;26.50;1.00;;;-143.32;52.23;54915.53;6098441;23;20440;-91
2021/06/20 11:34:50;;;;;;;3.60;2.10;;;26.70;1.00;;;-143.32;53.69;54929.66;6097532;23;20819;-91
2021/06/20 11:37:25;;;;;;;2.87;1.70;;;26.50;1.00;;;-143.32;54.50;54935.72;6098059;23;20407;-89
2021/06/20 11:40:07;;;;;;;3.67;1.70;;;26.20;1.00;;;-143.32;53.92;54903.41;6098734;23;20393;-90
2021/06/20 11:42:36;;;;;;;1.90;1.67;;;26.30;1.00;;;-143.32;52.58;54986.25;6097610;23;20392;-92
2021/06/20 11:45:10;;;;;;;2.90;1.57;;;26.10;1.00;;;-143.32;54.19;54970.09;6098280;23;20413;-88
2021/06/20 11:47:47;;;;;;;7.17;1.70;;;25.70;1.00;;;-143.32;53.59;54974.13;6097522;23;20397;-89
2021/06/20 11:50:18;;;;;;;4.73;1.77;;;26.00;1.00;;;-143.32;51.47;54990.28;6098147;23;20746;-90
2021/06/20 11:52:48;;;;;;;3.53;2.70;;;26.30;1.00;;;-143.32;49.83;54994.34;6097732;23;20415;-90
2021/06/20 11:55:22;;;;;;;1.27;1.27;;;26.40;1.00;;;-143.32;49.34;54994.34;6097718;23;20507;-88
2021/06/20 11:57:55;;;;;;;1.40;1.30;;;26.70;1.00;;;-143.32;49.22;54945.84;6097728;23;20415;-90
2021/06/20 12:00:27;;;;;;;2.70;1.90;;;27.00;1.00;;;-143.32;48.60;54925.63;6098876;23;20425;-89
2021/06/20 12:03:14;;;;;;;2.40;1.20;;;27.30;1.00;;;-143.32;48.43;54964.03;6098872;23;20389;-90
2021/06/20 12:05:49;;;;;;;3.80;1.60;;;27.30;1.00;;;-143.32;49.26;54998.38;6097724;23;20369;-88
2021/06/20 12:08:20;;;;;;;5.63;1.70;;;27.20;1.00;;;-143.32;48.89;55010.50;6097370;23;20423;-89
2021/06/20 12:10:50;;;;;;;1.60;1.50;;;26.90;1.00;;;-143.32;51.17;54972.09;6098158;23;20438;-88
2021/06/20 12:17:01;;;;;;;3.00;1.73;;;26.30;99.90;;;-143.32;52.09;55054.94;6097531;23;20407;-88
2021/06/20 12:19:39;;;;;;;5.40;1.30;;;26.30;99.90;;;-143.32;49.65;55040.81;6097511;23;20738;-92
2021/06/20 12:22:19;;;;;;;3.37;2.43;;;26.40;99.90;;;-143.32;50.99;55004.44;6097456;23;20424;-91
2021/06/20 12:25:01;;;;;;;2.40;1.37;;;26.40;1.00;;;-143.32;49.66;55002.41;6097904;23;20408;-89
2021/06/20 12:27:34;;;;;;;1.37;1.27;;;26.70;1.00;;;-143.32;48.73;55020.59;6111399;23;20423;-90
2021/06/20 12:30:15;;;;;;;2.47;1.43;;;27.00;1.00;;;-143.32;46.87;55038.78;6126657;23;20895;-89
2021/06/20 12:38:19;;;;;;;4.97;1.57;;;27.00;1.00;;;-143.32;47.12;55075.16;6105556;23;20449;-92
2021/06/20 12:40:53;;;;;;;5.30;1.43;;;26.90;1.00;;;-143.32;44.58;55119.63;6126973;23;20387;-90
2021/06/20 12:43:28;;;;;;;2.70;1.40;;;27.00;1.00;;;-143.32;43.67;55109.50;6126568;23;20396;-88
2021/06/20 12:46:05;;;;;;;2.07;1.40;;;27.10;1.00;;;-143.32;44.26;55111.53;6126489;23;20458;-89
2021/06/20 12:48:36;;;;;;;3.73;1.37;;;27.10;1.00;;;-143.32;44.89;55113.56;6127432;23;20427;-89
2021/06/20 12:51:09;;;;;;;2.33;1.40;;;27.00;1.00;;;-143.32;45.95;55101.44;6126647;23;20486;-91
2021/06/20 12:53:53;;;;;;;1.70;1.50;;;26.90;1.00;;;-143.32;47.13;55067.06;6128238;23;20526;-93
2021/06/20 12:59:24;;;;;;;1.97;1.47;;;27.20;1.00;;;-143.32;45.79;55075.16;6110237;23;20411;-91
2021/06/20 13:01:56;;;;;;;2.30;1.63;;;27.50;1.00;;;-143.32;43.59;55095.38;6127709;23;20482;-90
2021/06/20 13:04:23;;;;;;;1.90;1.40;;;27.50;1.00;;;-143.32;43.64;55184.28;6128351;23;20676;-93
2021/06/20 13:06:55;;;;;;;2.70;1.80;;;27.30;1.00;;;-143.32;44.94;55160.03;6128278;23;20958;-90
2021/06/20 13:09:30;;;;;;;2.03;1.50;;;27.10;1.00;;;-143.32;46.14;55162.06;6128522;23;20403;-93
2021/06/20 13:12:02;;;;;;;2.07;1.50;;;26.90;99.90;;;-143.32;46.39;55166.09;6128030;23;20397;-93
2021/06/20 13:14:32;;;;;;;2.50;1.50;;;26.70;99.90;;;-143.32;46.47;55149.94;6127186;23;20736;-92
2021/06/20 13:17:00;;;;;;;2.30;1.53;;;26.60;99.90;;;-143.32;45.81;55174.19;6127063;23;20456;-92
2021/06/20 13:19:30;;;;;;;3.37;1.50;;;26.70;99.90;;;-143.32;45.28;55158.00;6128461;23;20973;-91
2021/06/20 13:21:58;;;;;;;1.90;1.47;;;26.80;99.90;;;-143.32;45.30;55166.09;6129830;23;20470;-93
2021/06/20 13:24:25;;;;;;;1.60;1.50;;;27.00;99.90;;;-143.32;44.13;55133.75;6128749;23;20410;-91
2021/06/20 13:26:52;;;;;;;3.03;1.70;;;27.00;99.90;;;-143.32;44.84;55160.03;6128214;23;21005;-91
2021/06/20 13:29:20;;;;;;;7.43;1.70;;;27.50;99.90;;;-143.32;44.43;55164.06;6129476;23;20411;-90
2021/06/20 13:31:49;;;;;;;5.27;1.90;;;27.50;99.90;;;-143.32;42.83;55145.88;6128552;23;20391;-89
2021/06/20 13:34:16;;;;;;;1.83;1.33;;;27.60;99.90;;;-143.32;42.85;55182.25;6129805;23;20447;-91
2021/06/20 13:36:43;;;;;;;1.73;1.63;;;27.60;1.00;;;-143.32;43.51;55186.31;6128984;23;20391;-91
2021/06/20 13:39:28;;;;;;;2.30;1.63;;;27.50;1.00;;;-143.32;43.72;55180.25;6128762;23;20407;-91
2021/06/20 13:41:57;;;;;;;1.97;1.63;;;27.50;99.90;;;-143.32;43.79;55186.31;6128457;23;20376;-89
2021/06/20 13:44:25;;;;;;;2.30;1.40;;;27.50;99.90;;;-143.32;43.45;55188.31;6128377;23;20446;-90
2021/06/20 13:46:56;;;;;;;6.63;1.60;;;27.50;99.90;;;-143.32;43.78;55178.22;6128865;23;20896;-92
2021/06/20 13:49:37;;;;;;;2.80;1.70;;;27.60;99.90;;;-143.32;45.13;55172.16;6129079;23;20392;-91
2021/06/20 13:52:09;;;;;;;3.40;1.73;;;27.70;99.90;;;-143.32;44.09;55153.97;6128636;23;20399;-90
2021/06/20 13:54:40;;;;;;;2.80;1.33;;;27.80;99.90;;;-143.32;44.12;55158.00;6128632;23;20443;-91
2021/06/20 13:57:10;;;;;;;1.80;1.47;;;27.80;1.00;;;-143.32;44.01;55137.81;6126974;23;20407;-92
2021/06/20 13:59:47;;;;;;;1.50;1.40;;;28.10;99.90;;;-143.32;43.23;55204.50;6127688;23;20970;-90
2021/06/20 14:02:21;;;;;;;4.60;1.60;;;28.00;1.00;;;-143.32;44.02;55190.34;6129117;23;20418;-93
2021/06/20 14:04:54;;;;;;;2.30;1.50;;;27.80;99.90;;;-143.32;45.39;55214.59;6132524;23;20760;-92
2021/06/20 14:07:21;;;;;;;3.60;1.87;;;27.30;99.90;;;-143.32;46.54;55176.19;6130514;23;20693;-90
2021/06/20 14:09:48;;;;;;;2.43;1.47;;;27.00;99.90;;;-143.32;47.23;55228.75;6127963;23;20442;-90
2021/06/20 14:12:18;;;;;;;2.03;1.83;;;26.80;99.90;;;-143.32;50.12;55147.91;6128441;23;20399;-90
2021/06/20 14:14:48;;;;;;;2.03;1.83;;;26.60;99.90;;;-143.32;49.87;55198.44;6127459;23;20446;-92
2021/06/20 14:17:16;;;;;;;2.10;1.47;;;26.70;99.90;;;-143.32;49.27;55160.03;6127609;23;20875;-90
2021/06/20 14:19:49;;;;;;;7.63;2.63;;;26.80;99.90;;;-143.32;46.71;55182.25;6127722;23;20400;-90
2021/06/20 14:23:05;;;;;;;2.60;1.90;;;27.00;99.90;;;-143.32;48.01;55170.13;6127622;23;20506;-91
2021/06/20 14:25:32;;;;;;;2.73;1.40;;;27.00;99.90;;;-143.32;48.42;55196.41;6128051;23;20744;-91
2021/06/20 14:28:00;;;;;;;3.00;1.60;;;27.00;99.90;;;-143.32;48.62;55164.06;6127936;23;20391;-90
2021/06/20 14:30:27;;;;;;;2.70;1.60;;;27.00;99.90;;;-143.32;48.63;55186.31;6127406;23;20950;-92
2021/06/20 14:32:58;;;;;;;2.30;1.93;;;27.00;99.90;;;-143.32;50.13;55168.13;6127739;23;20724;-91
2021/06/20 14:35:25;;;;;;;1.77;1.50;;;26.90;99.90;;;-143.32;50.03;55170.13;6127326;23;20431;-90
2021/06/20 14:38:01;;;;;;;1.50;1.40;;;26.90;99.90;;;-143.32;49.16;55170.13;6128808;23;20403;-91
2021/06/20 14:40:28;;;;;;;2.20;1.20;;;26.90;99.90;;;-143.32;51.30;55162.06;6134124;23;20417;-91
2021/06/20 14:43:01;;;;;;;1.90;1.53;;;26.80;99.90;;;-143.32;52.35;55151.94;6127679;23;20411;-90
2021/06/20 14:45:28;;;;;;;3.63;1.70;;;26.70;99.90;;;-143.32;51.94;55145.88;6127727;23;20427;-89
2021/06/20 14:47:58;;;;;;;2.53;1.70;;;26.70;99.90;;;-143.32;51.05;55137.81;6127935;23;20458;-90
2021/06/20 14:50:25;;;;;;;1.97;1.53;;;26.90;99.90;;;-143.32;49.41;55164.06;6127426;23;20426;-89
2021/06/20 14:52:59;;;;;;;2.33;1.73;;;27.00;99.90;;;-143.32;49.37;55192.38;6127170;23;20412;-92
2021/06/20 14:55:35;;;;;;;2.37;1.50;;;27.00;99.90;;;-143.32;49.89;55200.44;6127702;23;20937;-91
2021/06/20 14:58:06;;;;;;;6.30;1.60;;;26.80;99.90;;;-143.32;51.62;55192.38;6128012;23;20718;-90
2021/06/20 15:00:37;;;;;;;4.00;1.50;;;26.60;99.90;;;-143.32;52.25;55182.25;6127951;23;20472;-89
2021/06/20 15:03:08;;;;;;;2.20;1.87;;;26.60;99.90;;;-143.32;52.63;55141.84;6127533;23;20411;-88
2021/06/20 15:05:38;;;;;;;3.37;1.50;;;26.60;99.90;;;-143.32;52.95;55149.94;6127240;23;20380;-90
2021/06/20 15:08:09;;;;;;;3.53;1.50;;;26.60;99.90;;;-143.32;51.45;55204.50;6127588;23;20914;-91
2021/06/20 15:10:48;;;;;;;1.60;1.50;;;26.40;99.90;;;-143.32;51.77;55149.94;6127476;23;20415;-91
2021/06/20 15:13:18;;;;;;;1.57;1.43;;;26.30;99.90;;;-143.32;52.66;55188.31;6127746;23;20391;-89
2021/06/20 15:16:08;;;;;;;3.33;1.90;;;26.40;99.90;;;-143.32;54.33;55190.34;6126621;23;20953;-89
2021/06/20 15:18:41;;;;;;;3.30;1.60;;;26.20;99.90;;;-143.32;53.96;55190.34;6126874;23;20874;-88
2021/06/20 15:21:19;;;;;;;;;;;;;;;;;;;;;
2021/06/20 15:23:49;;;;;;;2.37;1.50;;;26.40;99.90;;;-143.32;52.62;55178.22;6105149;23;20509;-92
2021/06/20 15:29:06;;;;;;;3.07;2.00;;;26.30;99.90;;;-143.32;54.43;55162.06;6124944;23;20474;-93
2021/06/20 15:31:38;;;;;;;11.10;7.40;;;26.30;99.90;;;-143.32;54.70;55149.94;6127050;23;20902;-91
2021/06/20 15:34:11;;;;;;;5.03;2.40;;;26.30;99.90;;;-143.32;55.06;55125.69;6127009;23;20487;-90
2021/06/20 15:36:38;;;;;;;2.07;1.87;;;26.40;99.90;;;-143.32;52.56;55180.25;6127417;23;20391;-88
2021/06/20 15:39:06;;;;;;;4.50;1.90;;;26.60;99.90;;;-143.32;50.15;55210.56;6127830;23;20400;-90
2021/06/20 15:41:41;;;;;;;2.20;1.80;;;26.70;99.90;;;-143.32;48.85;55236.81;6128167;23;20708;-92
2021/06/20 15:44:14;;;;;;;2.10;1.60;;;26.60;99.90;;;-143.32;49.79;55216.63;6127461;23;20756;-91
2021/06/20 15:46:51;;;;;;;1.90;1.70;;;26.60;99.90;;;-143.32;51.88;55190.34;6127259;23;20417;-90
2021/06/20 15:49:25;;;;;;;4.33;1.70;;;26.70;99.90;;;-143.32;53.04;55143.88;6127596;23;20407;-93
2021/06/20 15:51:54;;;;;;;1.70;1.60;;;26.80;99.90;;;-143.32;50.18;55200.44;6127241;23;20788;-90
2021/06/20 15:54:22;;;;;;;3.47;1.80;;;26.70;99.90;;;-143.32;51.33;55172.16;6127943;23;20414;-94
2021/06/20 15:56:49;;;;;;;5.07;1.93;;;26.60;99.90;;;-143.32;52.88;55182.25;6127177;23;20411;-90
2021/06/20 15:59:27;;;;;;;2.40;1.90;;;26.60;99.90;;;-143.32;50.38;55218.63;6127133;23;20701;-89
2021/06/20 16:01:54;;;;;;;1.63;1.53;;;26.70;99.90;;;-143.32;52.90;55178.22;6126716;23;20450;-89
2021/06/20 16:04:28;;;;;;;9.60;1.90;;;26.60;99.90;;;-143.32;55.77;55143.88;6127862;23;20415;-90
2021/06/20 16:06:56;;;;;;;2.23;1.50;;;26.50;99.90;;;-143.32;56.57;55125.69;6127092;23;20876;-90
2021/06/20 16:09:25;;;;;;;1.33;1.23;;;26.40;99.90;;;-143.32;56.50;55147.91;6126829;23;20411;-89
2021/06/20 16:12:39;;;;;;;2.90;2.10;;;26.20;99.90;;;-143.32;56.80;55147.91;6127054;23;20454;-89
2021/06/20 16:15:11;;;;;;;10.30;1.80;;;26.20;99.90;;;-143.32;55.94;55178.22;6059416;23;20771;-90
2021/06/20 16:20:27;;;;;;;9.47;1.70;;;26.20;99.90;;;-143.32;58.16;55127.69;6102777;23;20449;-90
2021/06/20 16:26:48;;;;;;;4.73;1.60;;;26.40;99.90;;;-143.32;58.50;55129.72;6132015;23;20375;-92
2021/06/20 16:29:19;;;;;;;1.83;1.60;;;26.30;99.90;;;-143.32;57.21;55125.69;6129672;23;20383;-92
2021/06/20 16:31:46;;;;;;;2.60;1.70;;;26.20;99.90;;;-143.32;57.02;55151.94;6130497;23;20383;-91
2021/06/20 16:34:15;;;;;;;3.60;1.57;;;26.20;99.90;;;-143.32;56.59;55176.19;6129066;23;20396;-93
2021/06/20 16:36:49;;;;;;;2.30;1.40;;;26.20;99.90;;;-143.32;55.42;55182.25;6135364;23;20957;-91
2021/06/20 16:39:19;;;;;;;2.07;1.43;;;26.10;99.90;;;-143.32;55.69;55200.44;6130612;23;20733;-91
2021/06/20 16:41:46;;;;;;;1.90;1.57;;;26.10;99.90;;;-143.32;54.98;55222.69;6129327;23;20411;-92
2021/06/20 16:44:14;;;;;;;4.17;2.07;;;26.00;99.90;;;-143.32;56.15;55204.50;6129269;23;20431;-91
2021/06/20 16:46:42;;;;;;;1.87;1.60;;;25.90;99.90;;;-143.32;55.99;55220.66;6129581;23;20415;-91
2021/06/20 16:49:10;;;;;;;4.40;1.50;;;25.90;99.90;;;-143.32;56.87;55174.19;6136971;23;20419;-92
2021/06/20 16:51:40;;;;;;;1.90;1.50;;;25.70;99.90;;;-143.32;57.41;55224.69;6139289;23;20415;-93
2021/06/20 16:54:12;;;;;;;1.93;1.77;;;25.80;99.90;;;-143.32;58.17;55186.31;6143610;23;20459;-91
2021/06/20 16:57:00;;;;;;;2.30;2.10;;;25.80;99.90;;;-143.32;57.03;55198.44;6141489;23;20474;-93
2021/06/20 16:59:27;;;;;;;4.27;1.50;;;25.90;99.90;;;-143.32;54.08;55220.66;6138144;23;20879;-91
2021/06/20 17:02:03;;;;;;;2.90;1.40;;;26.00;99.90;;;-143.32;54.89;55230.75;6134936;23;20875;-92
2021/06/20 17:19:59;;;;;;;2.60;1.50;;;25.90;99.90;;;-143.32;54.85;55206.50;6135185;23;20440;-95
2021/06/20 17:22:35;;;;;;;1.77;1.50;;;26.00;99.90;;;-143.32;54.00;55230.75;6132697;23;20462;-92
2021/06/20 17:25:07;;;;;;;1.57;1.47;;;26.10;99.90;;;-143.32;53.34;55248.94;6136027;23;20397;-92
2021/06/20 17:32:27;;;;;;;1.93;1.50;;;26.10;99.90;;;-143.32;54.96;55202.47;6135302;23;20874;-93
2021/06/20 17:38:43;;;;;;;5.40;1.47;;;26.10;99.90;;;-143.32;54.93;55236.81;6136842;23;20812;-94
2021/06/20 17:41:11;;;;;;;2.23;1.37;;;26.10;99.90;;;-143.32;54.66;55263.09;6134477;23;20463;-93
2021/06/20 17:43:40;;;;;;;3.33;1.50;;;25.90;99.90;;;-143.32;54.53;55250.97;6134001;23;20479;-93
2021/06/20 17:46:11;;;;;;;4.20;1.50;;;25.80;99.90;;;-143.32;56.79;55246.94;6134461;23;20886;-91
2021/06/20 17:48:53;;;;;;;2.50;1.43;;;25.70;99.90;;;-143.32;56.10;55222.69;6136932;23;20427;-95
2021/06/20 17:51:23;;;;;;;3.60;1.70;;;25.60;99.90;;;-143.32;55.60;55297.44;6137630;23;20376;-93
2021/06/20 17:53:52;;;;;;;3.30;1.83;;;25.60;99.90;;;-143.32;56.28;55234.81;6135861;23;20419;-92
2021/06/20 17:56:29;;;;;;;1.40;1.30;;;25.60;99.90;;;-143.32;56.44;55250.97;6136726;23;20498;-94
2021/06/20 17:59:06;;;;;;;8.47;1.60;;;25.50;99.90;;;-143.32;56.40;55267.13;6135952;23;20407;-93
2021/06/20 18:01:37;;;;;;;6.90;1.90;;;25.40;99.90;;;-143.32;56.59;55267.13;6138211;23;20395;-94
2021/06/20 18:04:08;;;;;;;1.87;1.50;;;25.40;99.90;;;-143.32;56.40;55263.09;6133559;23;20783;-93
2021/06/20 18:06:44;;;;;;;1.50;1.40;;;25.30;99.90;;;-143.32;57.23;55287.34;6136059;23;20736;-93
2021/06/20 18:12:56;;;;;;;4.87;1.80;;;25.20;99.90;;;-143.32;57.69;55250.97;6128282;23;20366;-89
2021/06/20 18:19:26;;;;;;;1.83;1.70;;;25.00;99.90;;;-143.32;58.84;55218.63;6148281;23;20399;-90
2021/06/20 18:21:54;;;;;;;5.33;1.70;;;25.00;99.90;;;-143.32;60.01;55267.13;6128214;23;20415;-90
2021/06/20 18:24:24;;;;;;;1.90;1.33;;;24.90;99.90;;;-143.32;60.60;55253.00;6128532;23;20461;-89
2021/06/20 18:26:51;;;;;;;1.70;1.60;;;24.70;99.90;;;-143.32;60.50;55257.03;6127994;23;20470;-89
2021/06/20 18:29:23;;;;;;;1.63;1.37;;;24.90;99.90;;;-143.32;60.72;55246.94;6127887;23;20434;-89
2021/06/20 18:31:54;;;;;;;2.07;1.53;;;24.80;99.90;;;-143.32;60.61;55232.78;6128364;23;20470;-89
2021/06/20 18:34:34;;;;;;;;;;;;;;;;;;;;;
2021/06/20 18:37:03;;;;;;;2.67;1.77;;;24.80;99.90;;;-143.32;61.92;55220.66;6128288;23;20486;-91
2021/06/20 19:18:52;;;;;;;1.70;1.60;;;24.10;99.90;;;-143.32;66.45;55261.06;6104315;23;20926;-89
2021/06/20 19:28:20;;;;;;;7.40;6.00;;;24.10;99.90;;;-143.32;67.28;55220.66;6093485;23;20415;-90
2021/06/20 19:31:57;;;;;;;9.70;2.37;;;24.00;99.90;;;-143.32;67.16;55236.81;6126743;23;20743;-88
2021/06/20 19:34:56;;;;;;;7.60;6.20;;;23.90;1.00;;;-143.32;66.35;55234.81;6060610;23;20414;-91
2021/06/20 19:38:00;;;;;;;5.23;3.93;;;23.90;1.00;;;-143.32;66.17;55242.88;6126848;23;20443;-89
2021/06/20 19:40:54;;;;;;;5.60;3.70;;;23.80;99.90;;;-143.32;66.40;55240.88;6127595;23;20415;-88
2021/06/20 19:50:59;;;;;;;3.77;2.73;;;23.70;1.00;;;-143.32;67.72;55248.94;6126778;23;20395;-89
2021/06/20 20:00:31;;;;;;;3.13;2.10;;;23.40;1.00;;;-143.32;68.03;55269.16;6124869;23;20427;-89
2021/06/20 20:03:32;;;;;;;3.80;2.23;;;23.40;1.00;;;-143.32;68.06;55275.22;6127983;23;20368;-89
2021/06/20 20:06:32;;;;;;;2.60;1.20;;;23.40;1.00;;;-143.32;68.27;55295.44;6135702;23;20401;-92
2021/06/20 20:14:47;;;;;;;5.63;1.97;;;23.30;1.00;;;-143.32;69.06;55263.09;6124618;23;20455;-90
2021/06/20 20:17:21;;;;;;;4.70;1.73;;;23.20;1.00;;;-143.32;68.99;55255.00;6097211;23;20442;-88
2021/06/20 20:20:04;;;;;;;1.60;1.50;;;23.20;1.00;;;-143.32;68.98;55248.94;6097155;23;20784;-91
2021/06/20 20:22:40;;;;;;;2.90;2.40;;;23.20;1.00;;;-143.32;68.66;55242.88;6097385;23;20416;-89
2021/06/20 21:34:00;;;;;;;2.60;1.60;;;23.10;99.90;;;-143.32;66.42;55303.50;6128363;23;20436;-90
2021/06/20 21:36:40;;;;;;;1.60;1.50;;;23.10;99.90;;;-143.32;65.50;55319.69;6104902;23;20503;-90
2021/06/20 21:39:25;;;;;;;1.90;1.80;;;23.10;99.90;;;-143.32;65.86;55327.75;6101880;23;20377;-91
2021/06/20 21:42:06;;;;;;;2.37;1.50;;;23.30;99.90;;;-143.32;65.39;55337.88;6102678;23;20385;-91
2021/06/20 21:44:36;;;;;;;3.27;1.97;;;23.10;99.90;;;-143.32;66.22;55325.75;6102551;23;20848;-91
2021/06/20 21:47:36;;;;;;;3.00;2.60;;;23.10;99.90;;;-143.32;65.73;55323.72;6104262;23;20412;-91
2021/06/20 21:50:47;;;;;;;2.10;1.40;;;23.20;99.90;;;-143.32;65.82;55321.69;6102218;23;20420;-90
2021/06/20 21:53:35;;;;;;;1.70;1.60;;;23.20;99.90;;;-143.32;66.10;55335.84;6104045;23;20487;-90
2021/06/20 21:56:16;;;;;;;4.13;1.70;;;23.20;99.90;;;-143.32;66.77;55325.75;6105438;23;20463;-92
2021/06/20 22:21:49;;;;;;;1.97;1.70;;;22.40;35.40;;;-143.32;78.98;55214.59;6100995;23;20947;-90
2021/06/20 22:24:30;;;;;;;4.17;1.67;;;22.10;99.90;;;-143.32;85.25;55170.13;6098407;23;20437;-90
2021/06/20 22:27:08;;;;;;;2.27;2.07;;;21.70;1.00;;;-143.32;90.82;55115.56;6098446;23;20408;-89
2021/06/20 22:29:40;;;;;;;2.40;2.20;;;21.20;99.90;;;-143.32;97.09;55048.88;6098568;23;20397;-88
2021/06/20 22:50:59;;;;;;;3.90;3.60;;;19.20;99.90;;;-143.32;100.00;54854.91;6038174;23;20378;-90
2021/06/20 22:55:05;;;;;;;;;;;;;;;;;;;;;
2021/06/20 23:01:37;;;;;;;6.53;5.00;;;19.00;99.90;;;-143.32;100.00;54646.78;5952783;23;20398;-88
2021/06/20 23:04:17;;;;;;;7.77;5.10;;;18.90;99.90;;;-143.32;100.00;54624.56;6038001;23;20415;-88
2021/06/20 23:06:49;;;;;;;10.17;7.60;;;18.90;99.90;;;-143.32;100.00;54539.72;6084614;23;20440;-89
2021/06/20 23:09:17;;;;;;;7.30;6.60;;;18.90;99.90;;;-143.32;100.00;54525.56;6098602;23;20872;-89
2021/06/20 23:11:47;;;;;;;8.43;7.53;;;18.90;99.90;;;-143.32;100.00;54440.72;6097928;23;20417;-89
2021/06/20 23:14:21;;;;;;;10.73;8.90;;;18.90;99.90;;;-143.32;100.00;54380.09;6097807;23;20397;-88
2021/06/20 23:16:57;;;;;;;10.23;9.23;;;18.90;99.90;;;-143.32;100.00;54266.97;6097781;23;20437;-88
2021/06/20 23:19:29;;;;;;;10.20;8.27;;;18.90;99.90;;;-143.32;100.00;54307.38;6098798;23;20413;-89
2021/06/20 23:22:23;;;;;;;13.67;9.43;;;19.10;99.90;;;-143.32;100.00;54238.69;6098169;23;20492;-91
2021/06/20 23:25:06;;;;;;;10.27;8.97;;;19.00;99.90;;;-143.32;100.00;54266.97;6098003;23;20409;-92
2021/06/20 23:27:48;;;;;;;12.53;9.70;;;19.10;99.90;;;-143.32;100.00;54159.91;6098009;23;20448;-91
2021/06/20 23:30:29;;;;;;;12.90;10.87;;;19.10;99.90;;;-143.32;100.00;54222.53;6098264;23;20409;-90
2021/06/20 23:33:16;;;;;;;15.27;11.47;;;19.20;99.90;;;-143.32;100.00;54190.19;6098302;23;20778;-90
2021/06/20 23:35:53;;;;;;;16.20;11.93;;;19.10;99.90;;;-143.32;100.00;54026.56;6097405;23;20428;-88
2021/06/20 23:38:26;;;;;;;12.73;11.10;;;19.10;99.90;;;-143.32;100.00;53885.16;6098993;23;20459;-87
2021/06/20 23:40:56;;;;;;;21.13;12.13;;;19.20;99.90;;;-143.32;100.00;53852.84;6098599;23;20397;-88
2021/06/20 23:43:44;;;;;;;15.43;12.20;;;19.30;99.90;;;-143.32;100.00;53867.00;6097370;23;20443;-88
2021/06/20 23:46:14;;;;;;;14.63;11.40;;;19.30;99.90;;;-143.32;100.00;53798.31;6097998;23;20393;-86
2021/06/20 23:49:04;;;;;;;14.77;11.60;;;19.30;99.90;;;-143.32;100.00;53802.34;6097819;23;20971;-88
2021/06/20 23:51:34;;;;;;;12.83;9.80;;;19.30;99.90;;;-143.32;100.00;53895.25;6097743;23;20413;-87
2021/06/20 23:54:37;;;;;;;13.00;10.87;;;19.40;99.90;;;-143.32;100.00;53848.81;6098094;23;20417;-88
2021/06/20 23:57:14;;;;;;;16.93;15.13;;;19.50;99.90;;;-143.32;100.00;53867.00;6097062;23;20452;-87
2021/06/20 23:59:41;;;;;;;15.57;13.20;;;19.60;99.90;;;-143.32;100.00;53869.00;6098831;23;20397;-88
